Terminal Aerodrome Forecast
Issued by NWS

Home | Current Version | Previous Version | Text Only | Print | Product List | Glossary On
Versions: 1 2 3 4 5 6 7 8 9 10 11 12 13 14 15 16 17 18 19 20 21 22 23 24 25 26 27 28 29 30 31 32 33
000
FTUS45 KGJT 261120
TAFASE
TAF
KASE 261120Z 2612/2712 23003KT P6SM SCT250
     FM261700 03004KT P6SM VCTS SCT070CB BKN120CB
     FM262100 33005KT P6SM VCTS BKN090CB
     FM270000 33005KT P6SM VCSH OVC050
     FM270300 29004KT P6SM VCSH OVC030
     FM270700 VRB03KT P6SM BKN035
     FM271100 VRB03KT P6SM BKN025=

USA.gov is the U.S. government's official web portal to all federal, state and local government web resources and services.